Kaiyu — 7JAQ — position and weather

sailwx.info

Track history (hours):
 
Tides and Currents Weather Stations Pressure Air Temp Water Temp Dewpoint Dewpoint Depression Visibility Wind Speed Wind Dir Waves Ship Positions

Kaiyu

Last reported at 2018-Apr-20 22:08 UTC. Time now 2018-Apr-23 07:17 UTC.
Position N 34°49' E 137°13'.

Length 62 m; draft 5.5 m.

Type: Tug. MMSI: 432506000.

Date/timePositionNaut miles runAvg speedWind from/ knotsBaromVisibWave heightAir tempDewpointWater temp
2018-Apr-20 22:08N 34°49' E 137°13'4 8.4
2018-Apr-20 21:37N 34°44' E 137°12'2 5.2
2018-Apr-20 21:15N 34°43' E 137°10'0 1.4
2018-Apr-20 20:59N 34°43' E 137°10'0 0.6
2018-Apr-20 20:29N 34°42' E 137°10'0 0.9
2018-Apr-20 19:59N 34°43' E 137°10'0 0.6
2018-Apr-20 19:30N 34°42' E 137°10'0 0.9
2018-Apr-20 19:00N 34°43' E 137°10'0 0.1
2018-Apr-20 18:30N 34°43' E 137°10'0 0.2
2018-Apr-20 18:00N 34°43' E 137°10'0 0.2
2018-Apr-20 17:30N 34°43' E 137°11'3 5.0
2018-Apr-20 17:00N 34°42' E 137°08'510.4
2018-Apr-20 16:30N 34°40' E 137°02'5 9.8
2018-Apr-20 16:00N 34°36' E 136°59'510.4
2018-Apr-20 15:30N 34°32' E 137°03'3411.6
2018-Apr-20 12:37N 34°00' E 137°17'311.0
2018-Apr-20 12:20N 33°58' E 137°19'1 0.1
2018-Apr-19 08:31N 33°57' E 137°20'1 0.4
2018-Apr-19 06:33N 33°57' E 137°20'0 2.6
2018-Apr-19 06:28N 33°57' E 137°20'36 2.3
2018-Apr-18 15:07N 34°30' E 137°02'312.5
2018-Apr-18 14:55N 34°32' E 137°02'611.1
2018-Apr-18 14:24N 34°37' E 136°59'512.5
2018-Apr-18 14:00N 34°41' E 137°03'612.1
2018-Apr-18 13:28N 34°44' E 137°10'5 0.4
2018-Apr-17 22:08N 34°49' E 137°13'2 9.4
2018-Apr-17 21:54N 34°46' E 137°13'3 8.0
2018-Apr-17 21:30N 34°44' E 137°11'2 3.9
2018-Apr-17 21:00N 34°42' E 137°11'0 0.5
2018-Apr-17 20:27N 34°42' E 137°11'0 0.3
2018-Apr-17 20:00N 34°42' E 137°11'0 0.2
2018-Apr-17 19:28N 34°42' E 137°11'0 0.5
2018-Apr-17 19:00N 34°42' E 137°10'0 0.8
2018-Apr-17 18:30N 34°42' E 137°10'0 0.7
2018-Apr-17 18:00N 34°43' E 137°10'3 6.5
2018-Apr-17 17:30N 34°42' E 137°06'711.3
2018-Apr-17 16:51N 34°37' E 136°59'411.1
2018-Apr-17 16:30N 34°34' E 137°00'  
2018-Apr-15 07:59N 34°37' E 136°58'510.5
2018-Apr-15 07:30N 34°40' E 137°03'510.7
2018-Apr-15 07:00N 34°43' E 137°09'1 2.6
2018-Apr-15 06:30N 34°42' E 137°10'0 0.0
2018-Apr-15 05:54N 34°42' E 137°10'0 0.0
2018-Apr-15 05:12N 34°42' E 137°10'0 0.0
2018-Apr-15 03:30N 34°42' E 137°10'0 0.0
2018-Apr-15 02:54N 34°42' E 137°10'0 0.0
2018-Apr-15 02:30N 34°42' E 137°10'0 0.0
2018-Apr-15 01:48N 34°42' E 137°10'0 0.1
2018-Apr-15 01:24N 34°42' E 137°10'0 0.1
2018-Apr-15 01:00N 34°42' E 137°10'0 0.1
2018-Apr-15 00:28N 34°42' E 137°10'0 0.0
2018-Apr-15 00:00N 34°42' E 137°10'0 0.0
2018-Apr-14 23:30N 34°42' E 137°10'0 0.0
2018-Apr-14 23:00N 34°42' E 137°10'0 0.0
2018-Apr-14 22:30N 34°42' E 137°10'0 0.0
2018-Apr-14 22:00N 34°42' E 137°10'0 0.1
2018-Apr-14 21:30N 34°42' E 137°10'0 0.0
2018-Apr-14 21:00N 34°42' E 137°10'3 6.7
2018-Apr-14 20:30N 34°42' E 137°06'812.1
2018-Apr-14 19:51N 34°37' E 136°59'0 0.0
2018-Apr-13 08:41N 34°37' E 136°58'211.1
2018-Apr-13 08:30N 34°38' E 137°00'611.7
2018-Apr-13 07:58N 34°42' E 137°06'511.4
2018-Apr-13 07:30N 34°45' E 137°12'  
Track history (hours):
 
Tides and Currents Weather Stations Pressure Air Temp Water Temp Dewpoint Dewpoint Depression Visibility Wind Speed Wind Dir Waves Ship Positions

Kaiyu

Last reported at 2018-Apr-20 22:08 UTC. Time now 2018-Apr-23 07:17 UTC.
Position N 34°49' E 137°13'.

Length 62 m; draft 5.5 m.

Type: Tug. MMSI: 432506000.

Date/timePositionNaut miles runAvg speedWind from/ knotsBaromVisibWave heightAir tempDewpointWater temp
2018-Apr-20 22:08N 34°49' E 137°13'4 8.4
2018-Apr-20 21:37N 34°44' E 137°12'2 5.2
2018-Apr-20 21:15N 34°43' E 137°10'0 1.4
2018-Apr-20 20:59N 34°43' E 137°10'0 0.6
2018-Apr-20 20:29N 34°42' E 137°10'0 0.9
2018-Apr-20 19:59N 34°43' E 137°10'0 0.6
2018-Apr-20 19:30N 34°42' E 137°10'0 0.9
2018-Apr-20 19:00N 34°43' E 137°10'0 0.1
2018-Apr-20 18:30N 34°43' E 137°10'0 0.2
2018-Apr-20 18:00N 34°43' E 137°10'0 0.2
2018-Apr-20 17:30N 34°43' E 137°11'3 5.0
2018-Apr-20 17:00N 34°42' E 137°08'510.4
2018-Apr-20 16:30N 34°40' E 137°02'5 9.8
2018-Apr-20 16:00N 34°36' E 136°59'510.4
2018-Apr-20 15:30N 34°32' E 137°03'3411.6
2018-Apr-20 12:37N 34°00' E 137°17'311.0
2018-Apr-20 12:20N 33°58' E 137°19'1 0.1
2018-Apr-19 08:31N 33°57' E 137°20'1 0.4
2018-Apr-19 06:33N 33°57' E 137°20'0 2.6
2018-Apr-19 06:28N 33°57' E 137°20'36 2.3
2018-Apr-18 15:07N 34°30' E 137°02'312.5
2018-Apr-18 14:55N 34°32' E 137°02'611.1
2018-Apr-18 14:24N 34°37' E 136°59'512.5
2018-Apr-18 14:00N 34°41' E 137°03'612.1
2018-Apr-18 13:28N 34°44' E 137°10'5 0.4
2018-Apr-17 22:08N 34°49' E 137°13'2 9.4
2018-Apr-17 21:54N 34°46' E 137°13'3 8.0
2018-Apr-17 21:30N 34°44' E 137°11'2 3.9
2018-Apr-17 21:00N 34°42' E 137°11'0 0.5
2018-Apr-17 20:27N 34°42' E 137°11'0 0.3
2018-Apr-17 20:00N 34°42' E 137°11'0 0.2
2018-Apr-17 19:28N 34°42' E 137°11'0 0.5
2018-Apr-17 19:00N 34°42' E 137°10'0 0.8
2018-Apr-17 18:30N 34°42' E 137°10'0 0.7
2018-Apr-17 18:00N 34°43' E 137°10'3 6.5
2018-Apr-17 17:30N 34°42' E 137°06'711.3
2018-Apr-17 16:51N 34°37' E 136°59'411.1
2018-Apr-17 16:30N 34°34' E 137°00'  
2018-Apr-15 07:59N 34°37' E 136°58'510.5
2018-Apr-15 07:30N 34°40' E 137°03'510.7
2018-Apr-15 07:00N 34°43' E 137°09'1 2.6
2018-Apr-15 06:30N 34°42' E 137°10'0 0.0
2018-Apr-15 05:54N 34°42' E 137°10'0 0.0
2018-Apr-15 05:12N 34°42' E 137°10'0 0.0
2018-Apr-15 03:30N 34°42' E 137°10'0 0.0
2018-Apr-15 02:54N 34°42' E 137°10'0 0.0
2018-Apr-15 02:30N 34°42' E 137°10'0 0.0
2018-Apr-15 01:48N 34°42' E 137°10'0 0.1
2018-Apr-15 01:24N 34°42' E 137°10'0 0.1
2018-Apr-15 01:00N 34°42' E 137°10'0 0.1
2018-Apr-15 00:28N 34°42' E 137°10'0 0.0
2018-Apr-15 00:00N 34°42' E 137°10'0 0.0
2018-Apr-14 23:30N 34°42' E 137°10'0 0.0
2018-Apr-14 23:00N 34°42' E 137°10'0 0.0
2018-Apr-14 22:30N 34°42' E 137°10'0 0.0
2018-Apr-14 22:00N 34°42' E 137°10'0 0.1
2018-Apr-14 21:30N 34°42' E 137°10'0 0.0
2018-Apr-14 21:00N 34°42' E 137°10'3 6.7
2018-Apr-14 20:30N 34°42' E 137°06'812.1
2018-Apr-14 19:51N 34°37' E 136°59'0 0.0
2018-Apr-13 08:41N 34°37' E 136°58'211.1
2018-Apr-13 08:30N 34°38' E 137°00'611.7
2018-Apr-13 07:58N 34°42' E 137°06'511.4
2018-Apr-13 07:30N 34°45' E 137°12'  

Dump ship's entire track history